sensor_id;sensor_type;location;lat;lon;timestamp;P1;durP1;ratioP1;P2;durP2;ratioP2
69912;SDS011;57198;52.082;5.108;2023-05-10T00:02:15;42.65;;;25.50;;
69912;SDS011;57198;52.082;5.108;2023-05-10T00:04:42;43.67;;;25.37;;
69912;SDS011;57198;52.082;5.108;2023-05-10T00:07:09;43.80;;;25.83;;
69912;SDS011;57198;52.082;5.108;2023-05-10T00:09:37;45.25;;;26.33;;
69912;SDS011;57198;52.082;5.108;2023-05-10T00:12:04;46.42;;;25.92;;
69912;SDS011;57198;52.082;5.108;2023-05-10T00:14:31;45.53;;;26.75;;
69912;SDS011;57198;52.082;5.108;2023-05-10T00:17:00;45.33;;;24.90;;
69912;SDS011;57198;52.082;5.108;2023-05-10T00:19:27;42.70;;;25.80;;
69912;SDS011;57198;52.082;5.108;2023-05-10T00:21:54;45.00;;;25.80;;
69912;SDS011;57198;52.082;5.108;2023-05-10T00:24:22;42.85;;;25.02;;
69912;SDS011;57198;52.082;5.108;2023-05-10T00:26:49;41.53;;;25.23;;
69912;SDS011;57198;52.082;5.108;2023-05-10T00:29:16;44.37;;;26.27;;
69912;SDS011;57198;52.082;5.108;2023-05-10T00:31:44;44.08;;;25.17;;
69912;SDS011;57198;52.082;5.108;2023-05-10T00:34:11;46.78;;;25.02;;
69912;SDS011;57198;52.082;5.108;2023-05-10T00:36:38;46.13;;;25.77;;
69912;SDS011;57198;52.082;5.108;2023-05-10T00:39:06;52.05;;;25.45;;
69912;SDS011;57198;52.082;5.108;2023-05-10T00:41:34;52.87;;;25.43;;
69912;SDS011;57198;52.082;5.108;2023-05-10T00:44:03;56.70;;;27.05;;
69912;SDS011;57198;52.082;5.108;2023-05-10T00:46:30;51.55;;;25.40;;
69912;SDS011;57198;52.082;5.108;2023-05-10T00:48:58;54.60;;;26.70;;
69912;SDS011;57198;52.082;5.108;2023-05-10T00:51:26;54.95;;;26.98;;
69912;SDS011;57198;52.082;5.108;2023-05-10T00:53:53;48.93;;;26.27;;
69912;SDS011;57198;52.082;5.108;2023-05-10T00:56:22;49.72;;;26.23;;
69912;SDS011;57198;52.082;5.108;2023-05-10T00:58:51;46.78;;;26.15;;
69912;SDS011;57198;52.082;5.108;2023-05-10T01:01:19;50.70;;;25.35;;
69912;SDS011;57198;52.082;5.108;2023-05-10T01:03:46;47.47;;;23.73;;
69912;SDS011;57198;52.082;5.108;2023-05-10T01:06:14;46.10;;;23.83;;
69912;SDS011;57198;52.082;5.108;2023-05-10T01:08:42;44.65;;;23.48;;
69912;SDS011;57198;52.082;5.108;2023-05-10T01:11:10;45.60;;;22.63;;
69912;SDS011;57198;52.082;5.108;2023-05-10T01:13:38;42.80;;;23.02;;
69912;SDS011;57198;52.082;5.108;2023-05-10T01:16:06;43.05;;;23.90;;
69912;SDS011;57198;52.082;5.108;2023-05-10T01:18:38;46.80;;;22.40;;
69912;SDS011;57198;52.082;5.108;2023-05-10T01:21:21;45.65;;;23.05;;
69912;SDS011;57198;52.082;5.108;2023-05-10T01:32:38;45.67;;;21.87;;
69912;SDS011;57198;52.082;5.108;2023-05-10T01:34:35;51.17;;;25.13;;
69912;SDS011;57198;52.082;5.108;2023-05-10T01:37:04;61.42;;;26.10;;
69912;SDS011;57198;52.082;5.108;2023-05-10T01:39:43;61.50;;;25.67;;
69912;SDS011;57198;52.082;5.108;2023-05-10T01:42:14;61.15;;;25.75;;
69912;SDS011;57198;52.082;5.108;2023-05-10T01:45:06;61.57;;;28.67;;
69912;SDS011;57198;52.082;5.108;2023-05-10T01:47:40;68.10;;;24.92;;
69912;SDS011;57198;52.082;5.108;2023-05-10T01:50:15;79.25;;;26.02;;
69912;SDS011;57198;52.082;5.108;2023-05-10T01:52:44;90.30;;;27.08;;
69912;SDS011;57198;52.082;5.108;2023-05-10T01:55:15;75.32;;;28.30;;
69912;SDS011;57198;52.082;5.108;2023-05-10T01:57:43;65.50;;;28.13;;
69912;SDS011;57198;52.082;5.108;2023-05-10T02:00:12;78.80;;;26.42;;
69912;SDS011;57198;52.082;5.108;2023-05-10T02:02:42;90.47;;;27.50;;
69912;SDS011;57198;52.082;5.108;2023-05-10T02:05:12;84.55;;;28.45;;
69912;SDS011;57198;52.082;5.108;2023-05-10T02:07:39;87.25;;;28.08;;
69912;SDS011;57198;52.082;5.108;2023-05-10T02:10:08;67.47;;;29.37;;
69912;SDS011;57198;52.082;5.108;2023-05-10T02:12:41;74.75;;;28.63;;
69912;SDS011;57198;52.082;5.108;2023-05-10T02:15:10;77.82;;;29.85;;
69912;SDS011;57198;52.082;5.108;2023-05-10T02:17:38;70.93;;;29.27;;
69912;SDS011;57198;52.082;5.108;2023-05-10T02:20:06;75.45;;;29.33;;
69912;SDS011;57198;52.082;5.108;2023-05-10T02:22:35;65.77;;;27.30;;
69912;SDS011;57198;52.082;5.108;2023-05-10T02:25:02;68.03;;;29.27;;
69912;SDS011;57198;52.082;5.108;2023-05-10T02:27:30;62.45;;;28.25;;
69912;SDS011;57198;52.082;5.108;2023-05-10T02:29:58;63.13;;;28.60;;
69912;SDS011;57198;52.082;5.108;2023-05-10T02:32:26;57.80;;;29.77;;
69912;SDS011;57198;52.082;5.108;2023-05-10T02:34:55;46.70;;;26.37;;
69912;SDS011;57198;52.082;5.108;2023-05-10T02:37:23;53.88;;;28.60;;
69912;SDS011;57198;52.082;5.108;2023-05-10T02:39:52;62.33;;;30.08;;
69912;SDS011;57198;52.082;5.108;2023-05-10T02:42:27;58.90;;;30.05;;
69912;SDS011;57198;52.082;5.108;2023-05-10T02:45:00;60.63;;;31.02;;
69912;SDS011;57198;52.082;5.108;2023-05-10T02:47:31;59.93;;;29.10;;
69912;SDS011;57198;52.082;5.108;2023-05-10T02:49:58;59.08;;;29.48;;
69912;SDS011;57198;52.082;5.108;2023-05-10T02:52:27;63.22;;;29.42;;
69912;SDS011;57198;52.082;5.108;2023-05-10T02:54:58;64.53;;;29.63;;
69912;SDS011;57198;52.082;5.108;2023-05-10T02:57:26;58.97;;;30.00;;
69912;SDS011;57198;52.082;5.108;2023-05-10T02:59:54;59.57;;;29.23;;
69912;SDS011;57198;52.082;5.108;2023-05-10T03:02:22;60.60;;;27.70;;
69912;SDS011;57198;52.082;5.108;2023-05-10T03:04:49;67.88;;;29.48;;
69912;SDS011;57198;52.082;5.108;2023-05-10T03:07:17;67.78;;;28.38;;
69912;SDS011;57198;52.082;5.108;2023-05-10T03:09:48;64.78;;;28.90;;
69912;SDS011;57198;52.082;5.108;2023-05-10T03:14:53;64.55;;;28.30;;
69912;SDS011;57198;52.082;5.108;2023-05-10T03:17:23;72.72;;;30.77;;
69912;SDS011;57198;52.082;5.108;2023-05-10T03:19:54;74.57;;;30.90;;
69912;SDS011;57198;52.082;5.108;2023-05-10T03:22:38;72.10;;;28.73;;
69912;SDS011;57198;52.082;5.108;2023-05-10T03:25:08;70.03;;;28.50;;
69912;SDS011;57198;52.082;5.108;2023-05-10T03:27:40;75.25;;;29.58;;
69912;SDS011;57198;52.082;5.108;2023-05-10T03:30:08;70.72;;;29.63;;
69912;SDS011;57198;52.082;5.108;2023-05-10T03:32:37;70.13;;;29.13;;
69912;SDS011;57198;52.082;5.108;2023-05-10T03:35:09;74.05;;;28.40;;
69912;SDS011;57198;52.082;5.108;2023-05-10T03:37:36;76.43;;;29.77;;
69912;SDS011;57198;52.082;5.108;2023-05-10T03:40:04;77.22;;;29.98;;
69912;SDS011;57198;52.082;5.108;2023-05-10T03:42:34;73.68;;;30.75;;
69912;SDS011;57198;52.082;5.108;2023-05-10T03:45:02;75.68;;;31.23;;
69912;SDS011;57198;52.082;5.108;2023-05-10T03:47:29;84.68;;;31.85;;
69912;SDS011;57198;52.082;5.108;2023-05-10T03:49:57;83.77;;;30.17;;
69912;SDS011;57198;52.082;5.108;2023-05-10T03:52:25;81.72;;;31.85;;
69912;SDS011;57198;52.082;5.108;2023-05-10T03:54:52;80.55;;;31.02;;
69912;SDS011;57198;52.082;5.108;2023-05-10T03:57:20;78.25;;;30.38;;
69912;SDS011;57198;52.082;5.108;2023-05-10T03:59:47;86.15;;;32.00;;
69912;SDS011;57198;52.082;5.108;2023-05-10T04:02:15;79.37;;;31.27;;
69912;SDS011;57198;52.082;5.108;2023-05-10T04:04:43;78.45;;;30.55;;
69912;SDS011;57198;52.082;5.108;2023-05-10T04:07:10;75.43;;;33.63;;
69912;SDS011;57198;52.082;5.108;2023-05-10T04:09:38;69.25;;;30.60;;
69912;SDS011;57198;52.082;5.108;2023-05-10T04:12:05;79.38;;;32.30;;
69912;SDS011;57198;52.082;5.108;2023-05-10T04:14:36;64.70;;;30.70;;
69912;SDS011;57198;52.082;5.108;2023-05-10T04:17:03;71.72;;;31.17;;
69912;SDS011;57198;52.082;5.108;2023-05-10T04:19:34;75.35;;;31.30;;
69912;SDS011;57198;52.082;5.108;2023-05-10T04:22:02;70.97;;;31.02;;
69912;SDS011;57198;52.082;5.108;2023-05-10T04:24:29;63.25;;;30.08;;
69912;SDS011;57198;52.082;5.108;2023-05-10T04:26:57;58.37;;;27.93;;
69912;SDS011;57198;52.082;5.108;2023-05-10T04:29:24;68.43;;;30.60;;
69912;SDS011;57198;52.082;5.108;2023-05-10T04:31:52;72.38;;;33.80;;
69912;SDS011;57198;52.082;5.108;2023-05-10T04:34:22;69.07;;;31.48;;
69912;SDS011;57198;52.082;5.108;2023-05-10T04:36:50;63.90;;;30.90;;
69912;SDS011;57198;52.082;5.108;2023-05-10T04:39:17;53.57;;;29.77;;
69912;SDS011;57198;52.082;5.108;2023-05-10T04:41:44;58.88;;;31.63;;
69912;SDS011;57198;52.082;5.108;2023-05-10T04:44:12;62.92;;;31.08;;
69912;SDS011;57198;52.082;5.108;2023-05-10T04:46:39;58.90;;;31.42;;
69912;SDS011;57198;52.082;5.108;2023-05-10T04:49:06;53.03;;;30.40;;
69912;SDS011;57198;52.082;5.108;2023-05-10T04:51:34;56.57;;;29.83;;
69912;SDS011;57198;52.082;5.108;2023-05-10T04:54:01;55.22;;;28.83;;
69912;SDS011;57198;52.082;5.108;2023-05-10T04:56:32;59.65;;;31.23;;
69912;SDS011;57198;52.082;5.108;2023-05-10T04:59:00;55.35;;;29.70;;
69912;SDS011;57198;52.082;5.108;2023-05-10T05:01:27;59.95;;;31.38;;
69912;SDS011;57198;52.082;5.108;2023-05-10T05:03:54;56.40;;;28.00;;
69912;SDS011;57198;52.082;5.108;2023-05-10T05:06:22;57.50;;;29.70;;
69912;SDS011;57198;52.082;5.108;2023-05-10T05:08:51;55.33;;;29.85;;
69912;SDS011;57198;52.082;5.108;2023-05-10T05:11:18;53.60;;;26.85;;
69912;SDS011;57198;52.082;5.108;2023-05-10T05:13:47;54.55;;;26.27;;
69912;SDS011;57198;52.082;5.108;2023-05-10T05:16:14;55.87;;;27.37;;
69912;SDS011;57198;52.082;5.108;2023-05-10T05:18:42;58.60;;;26.52;;
69912;SDS011;57198;52.082;5.108;2023-05-10T05:21:16;54.50;;;26.60;;
69912;SDS011;57198;52.082;5.108;2023-05-10T05:23:43;51.35;;;25.33;;
69912;SDS011;57198;52.082;5.108;2023-05-10T05:26:10;56.83;;;27.67;;
69912;SDS011;57198;52.082;5.108;2023-05-10T05:28:38;51.00;;;26.07;;
69912;SDS011;57198;52.082;5.108;2023-05-10T05:31:05;52.33;;;24.75;;
69912;SDS011;57198;52.082;5.108;2023-05-10T05:33:34;53.03;;;27.00;;
69912;SDS011;57198;52.082;5.108;2023-05-10T05:36:02;48.80;;;26.95;;
69912;SDS011;57198;52.082;5.108;2023-05-10T05:38:29;40.55;;;24.42;;
69912;SDS011;57198;52.082;5.108;2023-05-10T05:40:56;37.40;;;22.53;;
69912;SDS011;57198;52.082;5.108;2023-05-10T05:43:24;37.53;;;21.85;;
69912;SDS011;57198;52.082;5.108;2023-05-10T05:45:54;37.72;;;21.23;;
69912;SDS011;57198;52.082;5.108;2023-05-10T05:48:24;32.55;;;18.73;;
69912;SDS011;57198;52.082;5.108;2023-05-10T05:50:55;31.20;;;17.55;;
69912;SDS011;57198;52.082;5.108;2023-05-10T05:53:25;29.70;;;17.17;;
69912;SDS011;57198;52.082;5.108;2023-05-10T05:55:53;31.52;;;17.85;;
69912;SDS011;57198;52.082;5.108;2023-05-10T05:58:21;33.05;;;17.90;;
69912;SDS011;57198;52.082;5.108;2023-05-10T06:00:49;30.63;;;18.05;;
69912;SDS011;57198;52.082;5.108;2023-05-10T06:03:17;29.05;;;17.85;;
69912;SDS011;57198;52.082;5.108;2023-05-10T06:05:44;29.27;;;15.87;;
69912;SDS011;57198;52.082;5.108;2023-05-10T06:08:11;28.55;;;16.52;;
69912;SDS011;57198;52.082;5.108;2023-05-10T06:10:39;23.77;;;14.15;;
69912;SDS011;57198;52.082;5.108;2023-05-10T06:13:06;23.08;;;14.50;;
69912;SDS011;57198;52.082;5.108;2023-05-10T06:15:34;23.80;;;14.30;;
69912;SDS011;57198;52.082;5.108;2023-05-10T06:18:01;22.57;;;14.70;;
69912;SDS011;57198;52.082;5.108;2023-05-10T06:20:28;24.70;;;15.40;;
69912;SDS011;57198;52.082;5.108;2023-05-10T06:22:57;23.52;;;13.98;;
69912;SDS011;57198;52.082;5.108;2023-05-10T06:25:25;22.52;;;13.85;;
69912;SDS011;57198;52.082;5.108;2023-05-10T06:27:52;23.38;;;14.20;;
69912;SDS011;57198;52.082;5.108;2023-05-10T06:30:25;17.87;;;11.00;;
69912;SDS011;57198;52.082;5.108;2023-05-10T06:32:55;14.35;;;10.43;;
69912;SDS011;57198;52.082;5.108;2023-05-10T06:35:23;16.48;;;9.63;;
69912;SDS011;57198;52.082;5.108;2023-05-10T06:37:50;13.98;;;9.35;;
69912;SDS011;57198;52.082;5.108;2023-05-10T06:40:18;17.05;;;10.45;;
69912;SDS011;57198;52.082;5.108;2023-05-10T06:42:46;16.50;;;9.77;;
69912;SDS011;57198;52.082;5.108;2023-05-10T06:45:14;15.25;;;9.25;;
69912;SDS011;57198;52.082;5.108;2023-05-10T06:47:42;13.38;;;9.20;;
69912;SDS011;57198;52.082;5.108;2023-05-10T06:50:10;16.00;;;9.65;;
69912;SDS011;57198;52.082;5.108;2023-05-10T06:52:38;16.27;;;10.00;;
69912;SDS011;57198;52.082;5.108;2023-05-10T06:55:05;15.30;;;9.57;;
69912;SDS011;57198;52.082;5.108;2023-05-10T06:57:33;15.18;;;9.60;;
69912;SDS011;57198;52.082;5.108;2023-05-10T07:00:00;15.55;;;9.85;;
69912;SDS011;57198;52.082;5.108;2023-05-10T07:02:30;13.93;;;8.80;;
69912;SDS011;57198;52.082;5.108;2023-05-10T07:04:57;14.40;;;9.50;;
69912;SDS011;57198;52.082;5.108;2023-05-10T07:07:28;15.07;;;9.77;;
69912;SDS011;57198;52.082;5.108;2023-05-10T07:09:56;14.45;;;9.82;;
69912;SDS011;57198;52.082;5.108;2023-05-10T07:12:24;13.15;;;8.45;;
69912;SDS011;57198;52.082;5.108;2023-05-10T07:14:51;13.20;;;8.40;;
69912;SDS011;57198;52.082;5.108;2023-05-10T07:17:19;12.35;;;8.50;;
69912;SDS011;57198;52.082;5.108;2023-05-10T07:19:46;13.23;;;9.07;;
69912;SDS011;57198;52.082;5.108;2023-05-10T07:22:14;10.38;;;8.07;;
69912;SDS011;57198;52.082;5.108;2023-05-10T07:24:43;10.07;;;7.82;;
69912;SDS011;57198;52.082;5.108;2023-05-10T07:27:10;11.30;;;8.23;;
69912;SDS011;57198;52.082;5.108;2023-05-10T07:29:37;10.02;;;7.68;;
69912;SDS011;57198;52.082;5.108;2023-05-10T07:32:04;13.13;;;8.67;;
69912;SDS011;57198;52.082;5.108;2023-05-10T07:34:32;12.05;;;8.25;;
69912;SDS011;57198;52.082;5.108;2023-05-10T07:37:00;11.18;;;7.90;;
69912;SDS011;57198;52.082;5.108;2023-05-10T07:39:27;13.85;;;8.27;;
69912;SDS011;57198;52.082;5.108;2023-05-10T07:41:54;12.85;;;8.15;;
69912;SDS011;57198;52.082;5.108;2023-05-10T07:44:22;10.80;;;8.17;;
69912;SDS011;57198;52.082;5.108;2023-05-10T07:46:50;11.90;;;7.90;;
69912;SDS011;57198;52.082;5.108;2023-05-10T07:49:17;11.45;;;8.02;;
69912;SDS011;57198;52.082;5.108;2023-05-10T07:51:44;10.38;;;7.53;;
69912;SDS011;57198;52.082;5.108;2023-05-10T07:54:12;10.82;;;7.18;;
69912;SDS011;57198;52.082;5.108;2023-05-10T07:56:39;12.07;;;8.27;;
69912;SDS011;57198;52.082;5.108;2023-05-10T07:59:14;9.02;;;7.07;;
69912;SDS011;57198;52.082;5.108;2023-05-10T08:01:41;12.70;;;8.75;;
69912;SDS011;57198;52.082;5.108;2023-05-10T08:04:09;11.98;;;7.97;;
69912;SDS011;57198;52.082;5.108;2023-05-10T08:06:36;11.00;;;7.13;;
69912;SDS011;57198;52.082;5.108;2023-05-10T08:09:04;12.47;;;7.40;;
69912;SDS011;57198;52.082;5.108;2023-05-10T08:11:31;10.30;;;7.20;;
69912;SDS011;57198;52.082;5.108;2023-05-10T08:14:00;11.40;;;8.13;;
69912;SDS011;57198;52.082;5.108;2023-05-10T08:16:27;11.40;;;6.88;;
69912;SDS011;57198;52.082;5.108;2023-05-10T08:18:55;10.32;;;6.95;;
69912;SDS011;57198;52.082;5.108;2023-05-10T08:21:23;10.30;;;6.83;;
69912;SDS011;57198;52.082;5.108;2023-05-10T08:23:50;8.63;;;7.30;;
69912;SDS011;57198;52.082;5.108;2023-05-10T08:26:17;12.27;;;7.00;;
69912;SDS011;57198;52.082;5.108;2023-05-10T08:28:45;9.07;;;6.82;;
69912;SDS011;57198;52.082;5.108;2023-05-10T08:31:12;9.70;;;7.13;;
69912;SDS011;57198;52.082;5.108;2023-05-10T08:33:39;13.60;;;7.43;;
69912;SDS011;57198;52.082;5.108;2023-05-10T08:36:09;10.68;;;7.43;;
69912;SDS011;57198;52.082;5.108;2023-05-10T08:38:37;9.07;;;7.07;;
69912;SDS011;57198;52.082;5.108;2023-05-10T08:41:04;10.57;;;7.00;;
69912;SDS011;57198;52.082;5.108;2023-05-10T08:43:32;10.38;;;7.38;;
69912;SDS011;57198;52.082;5.108;2023-05-10T08:46:01;9.47;;;7.00;;
69912;SDS011;57198;52.082;5.108;2023-05-10T08:48:29;8.95;;;6.57;;
69912;SDS011;57198;52.082;5.108;2023-05-10T08:50:58;8.82;;;6.50;;
69912;SDS011;57198;52.082;5.108;2023-05-10T08:53:26;8.55;;;6.00;;
69912;SDS011;57198;52.082;5.108;2023-05-10T08:55:54;7.07;;;5.78;;
69912;SDS011;57198;52.082;5.108;2023-05-10T08:58:22;7.93;;;5.27;;
69912;SDS011;57198;52.082;5.108;2023-05-10T09:00:49;7.88;;;5.93;;
69912;SDS011;57198;52.082;5.108;2023-05-10T09:03:18;8.40;;;5.68;;
69912;SDS011;57198;52.082;5.108;2023-05-10T09:05:45;8.05;;;6.50;;
69912;SDS011;57198;52.082;5.108;2023-05-10T09:08:13;7.50;;;5.93;;
69912;SDS011;57198;52.082;5.108;2023-05-10T09:10:43;7.97;;;5.53;;
69912;SDS011;57198;52.082;5.108;2023-05-10T09:13:10;8.35;;;5.47;;
69912;SDS011;57198;52.082;5.108;2023-05-10T09:15:38;5.75;;;5.18;;
69912;SDS011;57198;52.082;5.108;2023-05-10T09:18:06;6.13;;;5.32;;
69912;SDS011;57198;52.082;5.108;2023-05-10T09:20:33;5.70;;;5.15;;
69912;SDS011;57198;52.082;5.108;2023-05-10T09:23:01;5.03;;;4.53;;
69912;SDS011;57198;52.082;5.108;2023-05-10T09:25:28;5.30;;;4.68;;
69912;SDS011;57198;52.082;5.108;2023-05-10T09:27:55;5.72;;;4.28;;
69912;SDS011;57198;52.082;5.108;2023-05-10T09:30:24;5.53;;;4.63;;
69912;SDS011;57198;52.082;5.108;2023-05-10T09:32:52;4.57;;;4.07;;
69912;SDS011;57198;52.082;5.108;2023-05-10T09:35:20;5.00;;;4.23;;
69912;SDS011;57198;52.082;5.108;2023-05-10T09:37:49;4.13;;;3.72;;
69912;SDS011;57198;52.082;5.108;2023-05-10T09:40:18;4.78;;;4.10;;
69912;SDS011;57198;52.082;5.108;2023-05-10T09:43:06;4.30;;;3.90;;
69912;SDS011;57198;52.082;5.108;2023-05-10T09:45:35;7.43;;;3.42;;
69912;SDS011;57198;52.082;5.108;2023-05-10T09:48:04;5.37;;;4.30;;
69912;SDS011;57198;52.082;5.108;2023-05-10T09:50:33;3.42;;;3.13;;
69912;SDS011;57198;52.082;5.108;2023-05-10T09:53:01;5.43;;;3.78;;
69912;SDS011;57198;52.082;5.108;2023-05-10T09:58:03;5.32;;;4.78;;
69912;SDS011;57198;52.082;5.108;2023-05-10T10:00:36;6.23;;;5.17;;
69912;SDS011;57198;52.082;5.108;2023-05-10T10:03:04;5.88;;;4.60;;
69912;SDS011;57198;52.082;5.108;2023-05-10T10:05:33;5.90;;;4.28;;
69912;SDS011;57198;52.082;5.108;2023-05-10T10:08:01;5.35;;;4.18;;
69912;SDS011;57198;52.082;5.108;2023-05-10T10:10:29;5.00;;;4.60;;
69912;SDS011;57198;52.082;5.108;2023-05-10T10:12:57;5.50;;;4.57;;
69912;SDS011;57198;52.082;5.108;2023-05-10T10:15:26;5.30;;;4.65;;
69912;SDS011;57198;52.082;5.108;2023-05-10T10:17:53;5.75;;;5.10;;
69912;SDS011;57198;52.082;5.108;2023-05-10T10:20:21;6.18;;;5.07;;
69912;SDS011;57198;52.082;5.108;2023-05-10T10:22:49;6.65;;;5.28;;
69912;SDS011;57198;52.082;5.108;2023-05-10T10:25:18;6.03;;;4.93;;
69912;SDS011;57198;52.082;5.108;2023-05-10T10:35:53;5.88;;;5.20;;
69912;SDS011;57198;52.082;5.108;2023-05-10T10:38:21;5.93;;;5.33;;
69912;SDS011;57198;52.082;5.108;2023-05-10T10:40:49;6.10;;;5.05;;
69912;SDS011;57198;52.082;5.108;2023-05-10T10:43:28;6.78;;;5.30;;
69912;SDS011;57198;52.082;5.108;2023-05-10T10:46:15;6.97;;;4.88;;
69912;SDS011;57198;52.082;5.108;2023-05-10T10:48:47;6.65;;;5.43;;
69912;SDS011;57198;52.082;5.108;2023-05-10T10:51:15;8.10;;;5.60;;
69912;SDS011;57198;52.082;5.108;2023-05-10T10:53:43;7.70;;;5.63;;
69912;SDS011;57198;52.082;5.108;2023-05-10T10:56:11;6.85;;;4.40;;
69912;SDS011;57198;52.082;5.108;2023-05-10T10:58:40;5.55;;;4.70;;
69912;SDS011;57198;52.082;5.108;2023-05-10T11:01:11;5.78;;;4.78;;
69912;SDS011;57198;52.082;5.108;2023-05-10T11:03:39;5.13;;;3.97;;
69912;SDS011;57198;52.082;5.108;2023-05-10T11:06:06;4.63;;;4.07;;
69912;SDS011;57198;52.082;5.108;2023-05-10T11:08:41;5.72;;;3.97;;
69912;SDS011;57198;52.082;5.108;2023-05-10T11:11:13;5.32;;;4.78;;
69912;SDS011;57198;52.082;5.108;2023-05-10T11:13:45;6.35;;;4.50;;
69912;SDS011;57198;52.082;5.108;2023-05-10T11:16:19;5.83;;;4.33;;
69912;SDS011;57198;52.082;5.108;2023-05-10T11:19:01;5.97;;;4.50;;
69912;SDS011;57198;52.082;5.108;2023-05-10T11:21:32;7.22;;;4.10;;
69912;SDS011;57198;52.082;5.108;2023-05-10T11:24:00;5.35;;;4.10;;
69912;SDS011;57198;52.082;5.108;2023-05-10T11:26:33;5.68;;;3.38;;
69912;SDS011;57198;52.082;5.108;2023-05-10T11:29:02;3.97;;;3.60;;
69912;SDS011;57198;52.082;5.108;2023-05-10T11:31:31;4.13;;;3.53;;
69912;SDS011;57198;52.082;5.108;2023-05-10T11:33:59;4.88;;;3.00;;
69912;SDS011;57198;52.082;5.108;2023-05-10T11:36:32;3.55;;;2.55;;
69912;SDS011;57198;52.082;5.108;2023-05-10T11:39:00;5.05;;;3.75;;
69912;SDS011;57198;52.082;5.108;2023-05-10T11:41:28;5.47;;;2.80;;
69912;SDS011;57198;52.082;5.108;2023-05-10T11:43:55;4.85;;;3.90;;
69912;SDS011;57198;52.082;5.108;2023-05-10T11:46:24;4.03;;;3.63;;
69912;SDS011;57198;52.082;5.108;2023-05-10T11:48:55;4.78;;;3.50;;
69912;SDS011;57198;52.082;5.108;2023-05-10T11:51:24;6.50;;;3.67;;
69912;SDS011;57198;52.082;5.108;2023-05-10T11:53:52;5.53;;;3.90;;
69912;SDS011;57198;52.082;5.108;2023-05-10T11:56:20;7.13;;;4.78;;
69912;SDS011;57198;52.082;5.108;2023-05-10T11:58:55;6.00;;;5.40;;
69912;SDS011;57198;52.082;5.108;2023-05-10T12:01:26;7.70;;;5.18;;
69912;SDS011;57198;52.082;5.108;2023-05-10T12:03:54;7.82;;;5.68;;
69912;SDS011;57198;52.082;5.108;2023-05-10T12:06:29;7.77;;;7.00;;
69912;SDS011;57198;52.082;5.108;2023-05-10T12:08:57;9.20;;;7.25;;
69912;SDS011;57198;52.082;5.108;2023-05-10T12:11:26;7.18;;;6.47;;
69912;SDS011;57198;52.082;5.108;2023-05-10T12:13:54;7.47;;;6.40;;
69912;SDS011;57198;52.082;5.108;2023-05-10T12:16:22;7.50;;;6.90;;
69912;SDS011;57198;52.082;5.108;2023-05-10T12:18:55;8.30;;;7.13;;
69912;SDS011;57198;52.082;5.108;2023-05-10T12:21:23;9.98;;;7.18;;
69912;SDS011;57198;52.082;5.108;2023-05-10T12:23:51;14.88;;;7.53;;
69912;SDS011;57198;52.082;5.108;2023-05-10T12:26:22;13.07;;;8.48;;
69912;SDS011;57198;52.082;5.108;2023-05-10T12:28:50;14.88;;;8.90;;
69912;SDS011;57198;52.082;5.108;2023-05-10T12:31:18;15.30;;;8.83;;
69912;SDS011;57198;52.082;5.108;2023-05-10T12:33:45;13.90;;;9.05;;
69912;SDS011;57198;52.082;5.108;2023-05-10T12:36:15;15.15;;;8.10;;
69912;SDS011;57198;52.082;5.108;2023-05-10T12:38:44;15.40;;;9.55;;
69912;SDS011;57198;52.082;5.108;2023-05-10T12:41:16;17.95;;;9.98;;
69912;SDS011;57198;52.082;5.108;2023-05-10T12:43:44;14.23;;;9.17;;
69912;SDS011;57198;52.082;5.108;2023-05-10T12:46:13;17.15;;;8.85;;
69912;SDS011;57198;52.082;5.108;2023-05-10T12:48:42;15.70;;;9.02;;
69912;SDS011;57198;52.082;5.108;2023-05-10T12:51:09;13.93;;;9.02;;
69912;SDS011;57198;52.082;5.108;2023-05-10T12:53:39;17.50;;;10.10;;
69912;SDS011;57198;52.082;5.108;2023-05-10T12:56:10;16.77;;;9.40;;
69912;SDS011;57198;52.082;5.108;2023-05-10T12:58:38;17.40;;;10.15;;
69912;SDS011;57198;52.082;5.108;2023-05-10T13:01:05;16.40;;;10.10;;
69912;SDS011;57198;52.082;5.108;2023-05-10T13:03:32;17.17;;;10.38;;
69912;SDS011;57198;52.082;5.108;2023-05-10T13:06:00;15.98;;;9.90;;
69912;SDS011;57198;52.082;5.108;2023-05-10T13:08:27;16.83;;;10.03;;
69912;SDS011;57198;52.082;5.108;2023-05-10T13:11:00;17.20;;;10.05;;
69912;SDS011;57198;52.082;5.108;2023-05-10T13:13:27;15.90;;;9.48;;
69912;SDS011;57198;52.082;5.108;2023-05-10T13:15:54;21.05;;;10.98;;
69912;SDS011;57198;52.082;5.108;2023-05-10T13:18:22;16.38;;;9.80;;
69912;SDS011;57198;52.082;5.108;2023-05-10T13:20:50;16.20;;;9.90;;
69912;SDS011;57198;52.082;5.108;2023-05-10T13:23:18;16.55;;;9.63;;
69912;SDS011;57198;52.082;5.108;2023-05-10T13:25:45;14.50;;;9.30;;
69912;SDS011;57198;52.082;5.108;2023-05-10T13:28:12;13.10;;;8.60;;
69912;SDS011;57198;52.082;5.108;2023-05-10T13:30:40;12.85;;;9.10;;
69912;SDS011;57198;52.082;5.108;2023-05-10T13:33:08;14.43;;;8.80;;
69912;SDS011;57198;52.082;5.108;2023-05-10T13:35:35;13.68;;;9.13;;
69912;SDS011;57198;52.082;5.108;2023-05-10T13:38:02;14.38;;;8.52;;
69912;SDS011;57198;52.082;5.108;2023-05-10T13:40:30;12.48;;;8.13;;
69912;SDS011;57198;52.082;5.108;2023-05-10T13:42:57;12.23;;;8.40;;
69912;SDS011;57198;52.082;5.108;2023-05-10T13:45:25;13.60;;;9.33;;
69912;SDS011;57198;52.082;5.108;2023-05-10T13:47:52;13.10;;;7.82;;
69912;SDS011;57198;52.082;5.108;2023-05-10T13:50:19;12.77;;;8.10;;
69912;SDS011;57198;52.082;5.108;2023-05-10T13:52:47;12.55;;;8.60;;
69912;SDS011;57198;52.082;5.108;2023-05-10T13:55:14;9.95;;;6.82;;
69912;SDS011;57198;52.082;5.108;2023-05-10T13:57:42;10.00;;;7.37;;
69912;SDS011;57198;52.082;5.108;2023-05-10T14:00:10;12.68;;;7.38;;
69912;SDS011;57198;52.082;5.108;2023-05-10T14:02:37;12.43;;;7.80;;
69912;SDS011;57198;52.082;5.108;2023-05-10T14:05:05;11.93;;;7.32;;
69912;SDS011;57198;52.082;5.108;2023-05-10T14:07:32;9.50;;;7.57;;
69912;SDS011;57198;52.082;5.108;2023-05-10T14:10:00;10.47;;;7.20;;
69912;SDS011;57198;52.082;5.108;2023-05-10T14:12:27;9.23;;;6.90;;
69912;SDS011;57198;52.082;5.108;2023-05-10T14:14:55;9.23;;;7.43;;
69912;SDS011;57198;52.082;5.108;2023-05-10T14:17:22;6.65;;;5.85;;
69912;SDS011;57198;52.082;5.108;2023-05-10T14:19:50;8.68;;;6.18;;
69912;SDS011;57198;52.082;5.108;2023-05-10T14:22:17;9.53;;;6.77;;
69912;SDS011;57198;52.082;5.108;2023-05-10T14:24:44;8.95;;;6.60;;
69912;SDS011;57198;52.082;5.108;2023-05-10T14:27:13;9.73;;;6.57;;
69912;SDS011;57198;52.082;5.108;2023-05-10T14:29:40;10.63;;;7.38;;
69912;SDS011;57198;52.082;5.108;2023-05-10T14:32:07;9.25;;;6.30;;
69912;SDS011;57198;52.082;5.108;2023-05-10T14:34:35;8.13;;;6.07;;
69912;SDS011;57198;52.082;5.108;2023-05-10T14:37:02;9.35;;;6.25;;
69912;SDS011;57198;52.082;5.108;2023-05-10T14:39:30;11.45;;;6.72;;
69912;SDS011;57198;52.082;5.108;2023-05-10T14:41:59;9.30;;;6.13;;
69912;SDS011;57198;52.082;5.108;2023-05-10T14:44:26;8.02;;;6.53;;
69912;SDS011;57198;52.082;5.108;2023-05-10T14:46:53;8.73;;;6.00;;
69912;SDS011;57198;52.082;5.108;2023-05-10T14:49:22;9.90;;;6.15;;
69912;SDS011;57198;52.082;5.108;2023-05-10T14:51:51;8.93;;;6.70;;
69912;SDS011;57198;52.082;5.108;2023-05-10T14:54:19;11.77;;;7.20;;
69912;SDS011;57198;52.082;5.108;2023-05-10T14:56:46;8.73;;;6.43;;
69912;SDS011;57198;52.082;5.108;2023-05-10T14:59:16;9.47;;;6.57;;
69912;SDS011;57198;52.082;5.108;2023-05-10T15:01:44;7.93;;;5.82;;
69912;SDS011;57198;52.082;5.108;2023-05-10T15:04:12;8.57;;;6.38;;